createdAt,value
2023-04-27T00:00:36.494Z,7.2862
2023-04-27T00:01:44.558Z,7.0928
2023-04-27T00:02:52.801Z,7.4607
2023-04-27T00:04:00.853Z,7.3010
2023-04-27T00:05:09.095Z,7.8584
2023-04-27T00:06:16.978Z,7.9011
2023-04-27T00:07:24.910Z,7.4500
2023-04-27T00:08:32.844Z,7.3586
2023-04-27T00:09:40.891Z,7.4704
2023-04-27T00:10:48.964Z,7.6572
2023-04-27T00:11:57.180Z,8.2250
2023-04-27T00:13:05.179Z,8.0538
2023-04-27T00:14:13.277Z,8.3051
2023-04-27T00:15:21.341Z,8.3331
2023-04-27T00:16:29.434Z,8.3425
2023-04-27T00:17:37.506Z,8.7316
2023-04-27T00:18:45.499Z,8.3224
2023-04-27T00:19:53.561Z,8.2980
2023-04-27T00:21:01.665Z,8.7511
2023-04-27T00:22:09.735Z,8.5185
2023-04-27T00:23:17.634Z,8.1551
2023-04-27T00:24:25.693Z,8.5488
2023-04-27T00:25:33.739Z,8.4298
2023-04-27T00:26:41.999Z,8.4347
2023-04-27T00:27:50.051Z,8.3344
2023-04-27T00:28:58.098Z,8.1278
2023-04-27T00:30:06.158Z,8.0959
2023-04-27T00:31:14.158Z,8.2699
2023-04-27T00:32:22.283Z,8.1439
2023-04-27T00:33:30.352Z,8.2043
2023-04-27T00:34:38.342Z,8.0166
2023-04-27T00:35:46.423Z,7.9817
2023-04-27T00:36:54.477Z,8.2646
2023-04-27T00:38:02.409Z,7.6502
2023-04-27T00:39:10.523Z,7.8720
2023-04-27T00:40:18.554Z,7.9357
2023-04-27T00:41:27.062Z,7.8758
2023-04-27T00:42:34.805Z,7.8970
2023-04-27T00:43:43.078Z,8.4809
2023-04-27T00:44:50.966Z,8.4159
2023-04-27T00:45:58.996Z,8.5547
2023-04-27T00:47:07.260Z,8.5692
2023-04-27T00:48:15.103Z,8.5063
2023-04-27T00:49:23.211Z,8.4758
2023-04-27T00:50:31.301Z,7.8816
2023-04-27T00:51:39.295Z,8.7545
2023-04-27T00:52:47.265Z,8.7347
2023-04-27T00:53:55.326Z,8.4936
2023-04-27T00:55:03.391Z,8.6290
2023-04-27T00:56:11.856Z,8.9722
2023-04-27T00:57:19.606Z,8.7706
2023-04-27T00:58:27.726Z,8.3196
2023-04-27T00:59:35.767Z,8.5960
2023-04-27T01:00:43.824Z,8.8351
2023-04-27T01:01:51.918Z,8.8015
2023-04-27T01:03:00.056Z,8.8691
2023-04-27T01:04:08.267Z,8.9198
2023-04-27T01:05:16.068Z,8.3732
2023-04-27T01:06:24.112Z,8.8686
2023-04-27T01:07:32.109Z,8.9387
2023-04-27T01:08:40.154Z,8.6138
2023-04-27T01:09:48.217Z,8.1784
2023-04-27T01:10:56.346Z,8.4543
2023-04-27T01:12:04.621Z,8.6221
2023-04-27T01:13:12.658Z,8.0256
2023-04-27T01:14:20.572Z,8.4139
2023-04-27T01:15:28.695Z,8.1635
2023-04-27T01:16:36.802Z,8.2512
2023-04-27T01:17:44.792Z,8.0713
2023-04-27T01:18:53.028Z,8.4774
2023-04-27T01:20:00.905Z,8.2958
2023-04-27T01:21:08.966Z,7.9703
2023-04-27T01:22:16.901Z,8.2000
2023-04-27T01:23:25.002Z,8.7882
2023-04-27T01:24:33.072Z,8.5809
2023-04-27T01:25:41.232Z,8.5812
2023-04-27T01:26:49.361Z,8.4568
2023-04-27T01:27:57.493Z,9.1169
2023-04-27T01:29:05.422Z,9.4763
2023-04-27T01:30:13.492Z,9.5083
2023-04-27T01:31:21.593Z,8.8357
2023-04-27T01:32:29.631Z,8.8584
2023-04-27T01:33:37.670Z,8.7310
2023-04-27T01:34:45.748Z,8.6455
2023-04-27T01:35:53.954Z,8.6192
2023-04-27T01:37:01.743Z,8.8553
2023-04-27T01:38:09.817Z,8.3608
2023-04-27T01:39:17.878Z,8.8319
2023-04-27T01:40:26.125Z,9.3429
2023-04-27T01:41:34.175Z,9.2285
2023-04-27T01:42:42.451Z,9.1730
2023-04-27T01:43:50.370Z,9.8464
2023-04-27T01:44:58.321Z,9.2259
2023-04-27T01:46:06.399Z,9.0488
2023-04-27T01:47:14.473Z,8.5983
2023-04-27T01:48:22.465Z,8.2409
2023-04-27T01:49:30.604Z,8.5750
2023-04-27T01:50:38.661Z,8.3475
2023-04-27T01:51:46.548Z,8.1167
2023-04-27T01:52:54.661Z,8.6497
2023-04-27T01:54:02.662Z,9.0015
2023-04-27T01:55:11.030Z,8.8450
2023-04-27T01:56:18.934Z,9.0629
2023-04-27T01:57:27.076Z,8.6383
2023-04-27T01:58:35.133Z,8.3579
2023-04-27T01:59:43.235Z,9.2064
2023-04-27T02:00:51.204Z,9.0124
2023-04-27T02:01:59.289Z,8.5615
2023-04-27T02:03:07.483Z,8.9410
2023-04-27T02:04:15.719Z,8.6738
2023-04-27T02:05:23.322Z,9.1862
2023-04-27T02:06:31.407Z,9.2830
2023-04-27T02:07:39.462Z,9.4530
2023-04-27T02:08:47.773Z,8.9307
2023-04-27T02:09:55.797Z,9.2771
2023-04-27T02:11:03.762Z,8.8783
2023-04-27T02:12:11.946Z,9.0269
2023-04-27T02:13:19.888Z,9.2364
2023-04-27T02:14:27.971Z,9.4882
2023-04-27T02:15:36.152Z,8.6227
2023-04-27T02:16:44.113Z,8.9085
2023-04-27T02:17:52.192Z,8.6614
2023-04-27T02:19:00.215Z,9.1936
2023-04-27T02:20:08.153Z,9.3153
2023-04-27T02:21:16.245Z,9.3014
2023-04-27T02:22:24.271Z,8.8976
2023-04-27T02:23:32.449Z,9.2288
2023-04-27T02:24:40.640Z,9.0925
2023-04-27T02:25:48.580Z,9.2943
2023-04-27T02:26:56.849Z,8.9677
2023-04-27T02:28:04.692Z,9.4100
2023-04-27T02:29:13.060Z,9.3081
2023-04-27T02:30:20.889Z,9.5286
2023-04-27T02:31:29.056Z,9.0800
2023-04-27T02:32:36.997Z,8.7974
2023-04-27T02:33:44.997Z,9.4981
2023-04-27T02:34:52.959Z,9.3399
2023-04-27T02:36:01.008Z,8.9546
2023-04-27T02:37:09.033Z,9.5443
2023-04-27T02:38:17.299Z,9.5395
2023-04-27T02:39:25.309Z,9.4489
2023-04-27T02:40:33.504Z,9.7192
2023-04-27T02:41:41.457Z,9.4216
2023-04-27T02:42:49.522Z,9.0427
2023-04-27T02:43:57.606Z,8.9574
2023-04-27T02:45:05.675Z,8.9885
2023-04-27T02:46:13.740Z,9.1416
2023-04-27T02:47:21.762Z,8.8955
2023-04-27T02:48:29.926Z,8.8553
2023-04-27T02:49:38.176Z,8.4856
2023-04-27T02:50:45.793Z,8.8621
2023-04-27T02:51:53.863Z,9.3423
2023-04-27T02:53:02.082Z,9.1197
2023-04-27T02:54:10.143Z,8.5979
2023-04-27T02:55:18.257Z,8.1494
2023-04-27T02:56:26.425Z,8.7872
2023-04-27T02:57:34.305Z,9.0150
2023-04-27T02:58:42.393Z,8.6350
2023-04-27T02:59:50.459Z,8.4753
2023-04-27T03:00:58.561Z,8.6565
2023-04-27T03:02:06.587Z,7.8831
2023-04-27T03:03:14.905Z,8.7709
2023-04-27T03:04:22.624Z,8.4520
2023-04-27T03:05:30.630Z,8.5052
2023-04-27T03:06:38.707Z,8.7263
2023-04-27T03:07:46.934Z,8.3861
2023-04-27T03:08:54.955Z,8.0999
2023-04-27T03:10:02.969Z,7.5402
2023-04-27T03:11:11.113Z,7.1832
2023-04-27T03:12:19.300Z,7.7274
2023-04-27T03:13:27.198Z,7.6397
2023-04-27T03:14:35.252Z,8.1943
2023-04-27T03:15:43.549Z,7.5161
2023-04-27T03:16:51.511Z,8.5824
2023-04-27T03:17:59.521Z,8.2987
2023-04-27T03:19:07.385Z,8.4072
2023-04-27T03:20:15.440Z,8.2418
2023-04-27T03:21:23.476Z,7.8374
2023-04-27T03:22:31.748Z,7.9319
2023-04-27T03:23:39.775Z,7.9756
2023-04-27T03:24:47.841Z,8.6438
2023-04-27T03:25:55.916Z,8.1451
2023-04-27T03:27:03.904Z,8.1996
2023-04-27T03:28:12.126Z,8.2063
2023-04-27T03:29:20.095Z,8.2220
2023-04-27T03:30:28.134Z,8.4845
2023-04-27T03:31:36.236Z,7.8874
2023-04-27T03:32:47.039Z,8.4492
2023-04-27T03:33:57.063Z,8.9295
2023-04-27T03:35:05.134Z,9.5857
2023-04-27T03:36:13.165Z,9.2283
2023-04-27T03:37:21.345Z,10.5074
2023-04-27T03:38:29.421Z,11.2960
2023-04-27T03:39:37.484Z,10.7628
2023-04-27T03:40:45.582Z,11.0861
2023-04-27T03:41:53.668Z,11.1946
2023-04-27T03:43:01.685Z,10.9889
2023-04-27T03:44:09.852Z,11.0000
2023-04-27T03:45:17.782Z,10.5795
2023-04-27T03:46:25.979Z,9.0956
2023-04-27T03:47:33.977Z,8.9725
2023-04-27T03:48:41.829Z,10.3496
2023-04-27T03:49:49.914Z,9.6970
2023-04-27T03:50:58.056Z,9.0040
2023-04-27T03:52:06.208Z,9.2270
2023-04-27T03:53:14.225Z,9.6376
2023-04-27T03:54:22.245Z,8.7695
2023-04-27T03:55:30.353Z,8.7409
2023-04-27T03:56:38.481Z,9.8813
2023-04-27T03:57:46.586Z,9.8552
2023-04-27T03:58:54.591Z,10.6361
2023-04-27T04:00:02.687Z,10.3444
2023-04-27T04:01:11.116Z,10.4054
2023-04-27T04:02:18.709Z,10.3865
2023-04-27T04:03:26.958Z,10.5605
2023-04-27T04:04:34.953Z,10.2638
2023-04-27T04:05:42.911Z,10.4769
2023-04-27T04:06:51.025Z,10.1484
2023-04-27T04:07:59.039Z,10.5323
2023-04-27T04:09:07.285Z,10.9018
2023-04-27T04:10:15.161Z,10.3432
2023-04-27T04:11:23.264Z,10.6129
2023-04-27T04:12:31.314Z,10.2444
2023-04-27T04:13:39.422Z,10.8345
2023-04-27T04:14:47.535Z,10.7795
2023-04-27T04:15:55.658Z,11.0561
2023-04-27T04:17:03.449Z,11.0050
2023-04-27T04:18:11.555Z,11.0270
2023-04-27T04:19:20.760Z,11.2186
2023-04-27T04:20:32.677Z,11.1154
2023-04-27T04:21:40.683Z,10.8953
2023-04-27T04:22:48.777Z,11.1933
2023-04-27T04:23:56.845Z,10.7129
2023-04-27T04:25:04.962Z,11.4704
2023-04-27T04:26:12.974Z,11.0204
2023-04-27T04:27:20.988Z,10.8516
2023-04-27T04:28:29.015Z,10.4962
2023-04-27T04:29:37.082Z,9.9818
2023-04-27T04:30:45.019Z,9.2955
2023-04-27T04:31:53.176Z,9.2513
2023-04-27T04:33:01.177Z,9.5722
2023-04-27T04:34:09.342Z,10.3499
2023-04-27T04:35:17.392Z,10.1533
2023-04-27T04:36:25.428Z,10.3475
2023-04-27T04:37:33.537Z,10.3058
2023-04-27T04:38:41.583Z,10.8475
2023-04-27T04:39:49.655Z,11.1024
2023-04-27T04:40:57.833Z,11.1110
2023-04-27T04:42:05.810Z,11.4276
2023-04-27T04:43:13.801Z,11.3745
2023-04-27T04:44:21.865Z,10.9730
2023-04-27T04:45:29.812Z,11.7515
2023-04-27T04:46:37.947Z,11.7223
2023-04-27T04:47:45.938Z,11.9692
2023-04-27T04:48:54.847Z,11.6873
2023-04-27T04:50:02.418Z,11.9817
2023-04-27T04:51:10.216Z,12.2229
2023-04-27T04:52:18.438Z,12.0903
2023-04-27T04:53:26.280Z,11.7869
2023-04-27T04:54:34.414Z,11.8196
2023-04-27T04:55:42.475Z,10.8762
2023-04-27T04:56:50.632Z,10.5399
2023-04-27T04:57:58.622Z,10.9908
2023-04-27T04:59:06.571Z,10.8317
2023-04-27T05:00:14.603Z,11.3410
2023-04-27T05:01:22.673Z,10.5973
2023-04-27T05:02:30.756Z,11.1951
2023-04-27T05:03:38.960Z,10.8397
2023-04-27T05:04:47.143Z,10.9033
2023-04-27T05:05:55.113Z,11.0213
2023-04-27T05:07:03.090Z,10.7589
2023-04-27T05:08:11.062Z,10.8184
2023-04-27T05:09:19.178Z,10.3622
2023-04-27T05:10:27.194Z,10.1301
2023-04-27T05:11:35.353Z,10.2240
2023-04-27T05:12:43.356Z,10.4684
2023-04-27T05:13:51.477Z,10.2252
2023-04-27T05:14:59.338Z,10.0777
2023-04-27T05:16:07.468Z,10.1836
2023-04-27T05:17:15.493Z,10.4915
2023-04-27T05:18:23.633Z,9.9774
2023-04-27T05:19:31.776Z,10.9591
2023-04-27T05:20:39.735Z,11.5593
2023-04-27T05:21:47.987Z,11.4442
2023-04-27T05:22:55.889Z,11.0738
2023-04-27T05:24:03.927Z,10.9787
2023-04-27T05:25:12.097Z,10.4042
2023-04-27T05:26:20.045Z,10.9235
2023-04-27T05:27:28.096Z,10.9514
2023-04-27T05:28:36.177Z,10.7504
2023-04-27T05:29:44.103Z,11.2417
2023-04-27T05:30:52.201Z,11.7806
2023-04-27T05:32:00.357Z,11.7968
2023-04-27T05:33:08.449Z,11.4534
2023-04-27T05:34:16.597Z,11.4984
2023-04-27T05:35:24.569Z,11.8301
2023-04-27T05:36:32.609Z,11.6591
2023-04-27T05:37:40.572Z,11.4883
2023-04-27T05:38:48.693Z,11.3876
2023-04-27T05:39:56.813Z,11.0425
2023-04-27T05:41:04.826Z,10.7977
2023-04-27T05:42:12.867Z,11.0880
2023-04-27T05:43:20.963Z,11.2520
2023-04-27T05:44:28.911Z,11.6529
2023-04-27T05:45:37.005Z,11.4140
2023-04-27T05:46:45.013Z,11.3409
2023-04-27T05:47:53.232Z,11.5137
2023-04-27T05:49:01.361Z,11.6674
2023-04-27T05:50:09.353Z,11.7019
2023-04-27T05:51:17.394Z,11.4000
2023-04-27T05:52:25.375Z,12.2064
2023-04-27T05:53:33.496Z,11.9124
2023-04-27T05:54:41.487Z,11.3109
2023-04-27T05:55:49.682Z,11.2342
2023-04-27T05:56:57.704Z,10.9111
2023-04-27T05:58:08.963Z,11.1630
2023-04-27T05:59:18.470Z,11.5716
2023-04-27T06:00:26.554Z,11.9107
2023-04-27T06:01:34.588Z,12.0169
2023-04-27T06:02:42.956Z,11.8208
2023-04-27T06:03:50.924Z,10.9853
2023-04-27T06:04:59.086Z,11.1659
2023-04-27T06:06:06.904Z,11.3835
2023-04-27T06:07:16.153Z,12.2316
2023-04-27T06:08:23.112Z,11.8276
2023-04-27T06:09:31.069Z,12.0723
2023-04-27T06:10:39.108Z,12.3638
2023-04-27T06:11:47.233Z,11.5064
2023-04-27T06:12:55.347Z,11.9024
2023-04-27T06:14:03.255Z,11.4398
2023-04-27T06:15:11.287Z,10.9337
2023-04-27T06:16:19.449Z,11.8454
2023-04-27T06:17:27.508Z,11.8773
2023-04-27T06:18:35.559Z,12.1190
2023-04-27T06:19:43.646Z,12.2708
2023-04-27T06:20:51.790Z,12.8402
2023-04-27T06:21:59.709Z,12.3658
2023-04-27T06:23:07.789Z,11.6671
2023-04-27T06:24:15.848Z,11.8634
2023-04-27T06:25:27.074Z,12.5522
2023-04-27T06:26:36.862Z,12.6281
2023-04-27T06:27:44.788Z,12.2554
2023-04-27T06:28:52.847Z,12.0979
2023-04-27T06:30:01.043Z,12.3425
2023-04-27T06:31:09.109Z,12.1849
2023-04-27T06:32:17.081Z,12.7847
2023-04-27T06:33:25.109Z,12.6397
2023-04-27T06:34:33.174Z,12.4129
2023-04-27T06:35:41.250Z,11.6303
2023-04-27T06:36:49.338Z,11.4307
2023-04-27T06:37:57.471Z,12.3928
2023-04-27T06:39:05.409Z,12.1497
2023-04-27T06:40:13.485Z,12.0163
2023-04-27T06:41:21.659Z,12.3836
2023-04-27T06:42:29.588Z,13.1586
2023-04-27T06:43:37.569Z,12.4218
2023-04-27T06:44:45.705Z,11.6942
2023-04-27T06:45:53.906Z,12.3127
2023-04-27T06:47:01.848Z,12.1237
2023-04-27T06:48:10.012Z,12.0182
2023-04-27T06:49:17.939Z,12.2753
2023-04-27T06:50:26.027Z,12.4568
2023-04-27T06:51:34.120Z,12.5473
2023-04-27T06:52:42.320Z,12.1576
2023-04-27T06:53:50.258Z,12.3798
2023-04-27T06:54:58.278Z,12.9387
2023-04-27T06:56:06.309Z,12.7564
2023-04-27T06:57:14.310Z,12.4375
2023-04-27T06:58:22.359Z,12.3100
2023-04-27T06:59:30.412Z,12.8908
2023-04-27T07:00:38.518Z,12.5633
2023-04-27T07:01:46.561Z,12.3118
2023-04-27T07:02:54.673Z,13.2892
2023-04-27T07:04:02.780Z,13.1442
2023-04-27T07:05:10.721Z,13.9742
2023-04-27T07:06:18.833Z,12.8903
2023-04-27T07:07:26.909Z,13.0988
2023-04-27T07:08:35.034Z,13.1042
2023-04-27T07:09:43.113Z,13.5218
2023-04-27T07:10:51.136Z,13.8889
2023-04-27T07:11:59.226Z,13.8692
2023-04-27T07:13:09.119Z,13.7084
2023-04-27T07:14:20.077Z,13.6949
2023-04-27T07:15:28.154Z,14.4477
2023-04-27T07:16:36.274Z,14.1948
2023-04-27T07:17:44.261Z,13.4151
2023-04-27T07:18:52.336Z,13.0797
2023-04-27T07:20:00.376Z,13.6246
2023-04-27T07:21:08.549Z,13.8224
2023-04-27T07:22:16.518Z,12.5072
2023-04-27T07:23:24.569Z,13.2759
2023-04-27T07:24:32.690Z,13.4044
2023-04-27T07:25:40.563Z,13.0497
2023-04-27T07:26:48.654Z,13.4388
2023-04-27T07:27:56.704Z,12.2295
2023-04-27T07:29:14.439Z,13.0421
2023-04-27T07:30:17.910Z,11.7427
2023-04-27T07:31:26.301Z,12.0285
2023-04-27T07:32:33.983Z,11.6268
2023-04-27T07:33:42.006Z,11.7897
2023-04-27T07:34:54.082Z,12.9346
2023-04-27T07:36:02.922Z,11.7815
2023-04-27T07:37:11.027Z,12.4466
2023-04-27T07:38:18.976Z,12.6740
2023-04-27T07:39:27.057Z,13.3948
2023-04-27T07:40:35.059Z,12.2151
2023-04-27T07:41:43.223Z,13.5312
2023-04-27T07:42:51.289Z,12.6719
2023-04-27T07:43:59.395Z,11.8595
2023-04-27T07:45:07.514Z,12.4090
2023-04-27T07:46:15.459Z,12.0710
2023-04-27T07:47:23.574Z,12.1934
2023-04-27T07:48:31.544Z,11.7835
2023-04-27T07:49:39.642Z,11.3963
2023-04-27T07:50:47.646Z,11.0609
2023-04-27T07:51:55.782Z,10.7413
2023-04-27T07:53:03.791Z,11.0712
2023-04-27T07:54:11.774Z,10.8883
2023-04-27T07:55:19.859Z,11.1049
2023-04-27T07:56:28.055Z,11.0704
2023-04-27T07:57:36.139Z,11.6290
2023-04-27T07:58:44.076Z,11.0965
2023-04-27T07:59:52.184Z,11.1724
2023-04-27T08:01:00.194Z,10.7714
2023-04-27T08:02:19.113Z,9.8273
2023-04-27T08:03:21.231Z,9.2496
2023-04-27T08:04:29.406Z,9.6788
2023-04-27T08:05:37.490Z,9.6216
2023-04-27T08:06:45.880Z,10.5588
2023-04-27T08:07:53.990Z,10.3734
2023-04-27T08:09:01.550Z,11.1011
2023-04-27T08:10:09.589Z,11.7420
2023-04-27T08:11:17.629Z,12.0801
2023-04-27T08:12:25.639Z,11.4457
2023-04-27T08:13:33.893Z,11.7325
2023-04-27T08:14:41.753Z,12.1062
2023-04-27T08:15:49.825Z,11.9169
2023-04-27T08:16:58.027Z,11.9044
2023-04-27T08:18:05.991Z,11.5445
2023-04-27T08:19:14.207Z,11.8248
2023-04-27T08:20:21.937Z,12.1119
2023-04-27T08:21:29.989Z,12.8634
2023-04-27T08:22:38.063Z,12.7725
2023-04-27T08:23:46.106Z,12.3015
2023-04-27T08:24:54.211Z,12.8215
2023-04-27T08:26:02.311Z,12.6815
2023-04-27T08:27:10.264Z,12.8954
2023-04-27T08:28:18.428Z,12.8268
2023-04-27T08:29:28.813Z,13.0560
2023-04-27T08:30:39.482Z,12.8598
2023-04-27T08:31:47.529Z,12.2309
2023-04-27T08:32:55.559Z,12.3862
2023-04-27T08:34:03.449Z,12.3885
2023-04-27T08:35:11.546Z,10.8374
2023-04-27T08:36:19.584Z,10.4871
2023-04-27T08:37:27.753Z,9.8857
2023-04-27T08:38:35.842Z,10.1513
2023-04-27T08:39:43.804Z,10.2446
2023-04-27T08:40:51.897Z,10.1772
2023-04-27T08:42:00.014Z,10.2866
2023-04-27T08:43:08.008Z,10.8794
2023-04-27T08:44:16.107Z,10.3278
2023-04-27T08:45:24.115Z,9.7972
2023-04-27T08:46:32.163Z,10.2122
2023-04-27T08:47:43.421Z,10.8800
2023-04-27T08:48:53.059Z,11.2896
2023-04-27T08:50:01.121Z,10.8093
2023-04-27T08:51:09.121Z,11.2263
2023-04-27T08:52:17.356Z,10.9585
2023-04-27T08:53:25.404Z,10.7156
2023-04-27T08:54:33.313Z,11.7261
2023-04-27T08:55:41.496Z,11.6936
2023-04-27T08:56:49.519Z,11.4517
2023-04-27T08:57:57.590Z,11.8872
2023-04-27T08:59:05.661Z,12.4831
2023-04-27T09:00:13.711Z,12.4284
2023-04-27T09:01:21.944Z,11.8240
2023-04-27T09:02:30.036Z,11.5544
2023-04-27T09:03:37.995Z,11.7733
2023-04-27T09:04:45.909Z,12.6411
2023-04-27T09:06:04.369Z,12.0463
2023-04-27T09:07:06.897Z,12.0086
2023-04-27T09:08:14.975Z,11.7554
2023-04-27T09:09:23.008Z,12.1787
2023-04-27T09:10:31.283Z,11.9453
2023-04-27T09:11:39.165Z,12.4378
2023-04-27T09:12:47.222Z,11.9624
2023-04-27T09:13:55.225Z,12.2468
2023-04-27T09:15:03.308Z,11.9425
2023-04-27T09:16:11.523Z,11.8932
2023-04-27T09:17:19.339Z,11.7979
2023-04-27T09:18:27.321Z,12.0986
2023-04-27T09:19:35.406Z,11.6105
2023-04-27T09:20:43.552Z,11.7505
2023-04-27T09:21:51.714Z,11.4444
2023-04-27T09:22:59.871Z,11.1563
2023-04-27T09:24:07.744Z,11.1552
2023-04-27T09:25:15.779Z,11.1578
2023-04-27T09:26:23.795Z,11.2603
2023-04-27T09:27:31.824Z,11.2172
2023-04-27T09:28:39.944Z,11.2856
2023-04-27T09:29:48.192Z,11.0051
2023-04-27T09:30:56.055Z,11.5454
2023-04-27T09:32:04.181Z,11.1831
2023-04-27T09:33:12.081Z,10.8322
2023-04-27T09:34:20.122Z,9.6052
2023-04-27T09:35:28.358Z,9.8839
2023-04-27T09:36:36.226Z,10.3087
2023-04-27T09:37:44.426Z,9.6677
2023-04-27T09:38:52.490Z,8.4895
2023-04-27T09:40:00.449Z,8.7769
2023-04-27T09:41:08.594Z,9.2378
2023-04-27T09:42:16.515Z,9.1631
2023-04-27T09:43:24.633Z,8.9163
2023-04-27T09:44:32.917Z,8.1891
2023-04-27T09:45:40.856Z,8.1900
2023-04-27T09:46:48.743Z,8.4300
2023-04-27T09:47:56.887Z,8.0798
2023-04-27T09:49:04.843Z,7.7777
2023-04-27T09:50:12.916Z,7.3394
2023-04-27T09:51:21.071Z,7.2866
2023-04-27T09:52:29.186Z,7.4601
2023-04-27T09:53:37.077Z,7.4243
2023-04-27T09:54:45.234Z,6.7592
2023-04-27T09:55:53.435Z,6.7752
2023-04-27T09:57:01.347Z,6.5623
2023-04-27T09:58:09.375Z,6.4361
2023-04-27T09:59:17.449Z,6.1450
2023-04-27T10:00:25.469Z,6.5810
2023-04-27T10:01:35.274Z,7.1074
2023-04-27T10:02:53.068Z,6.7481
2023-04-27T10:03:59.443Z,6.1264
2023-04-27T10:05:07.364Z,5.7904
2023-04-27T10:06:15.471Z,6.0242
2023-04-27T10:07:23.566Z,5.5344
2023-04-27T10:08:31.891Z,5.4978
2023-04-27T10:09:39.670Z,5.5084
2023-04-27T10:10:47.698Z,5.1263
2023-04-27T10:11:55.727Z,4.7722
2023-04-27T10:13:03.883Z,4.3269
2023-04-27T10:14:11.790Z,3.8844
2023-04-27T10:15:19.836Z,3.6282
2023-04-27T10:16:27.909Z,3.9847
2023-04-27T10:17:36.116Z,3.8202
2023-04-27T10:18:44.052Z,3.6198
2023-04-27T10:19:54.305Z,3.5598
2023-04-27T10:21:05.024Z,3.8809
2023-04-27T10:22:13.166Z,3.7726
2023-04-27T10:23:21.361Z,3.5863
2023-04-27T10:24:29.227Z,3.4189
2023-04-27T10:25:37.323Z,3.5422
2023-04-27T10:26:45.299Z,3.0431
2023-04-27T10:27:53.370Z,3.2568
2023-04-27T10:29:01.324Z,3.3736
2023-04-27T10:30:09.405Z,2.9152
2023-04-27T10:31:17.603Z,2.6295
2023-04-27T10:32:25.683Z,2.8737
2023-04-27T10:33:33.639Z,3.1898
2023-04-27T10:34:41.662Z,3.0740
2023-04-27T10:35:49.856Z,3.0748
2023-04-27T10:36:57.788Z,2.9211
2023-04-27T10:38:05.845Z,2.8383
2023-04-27T10:39:14.217Z,2.8771
2023-04-27T10:40:21.988Z,2.7521
2023-04-27T10:41:30.099Z,2.9287
2023-04-27T10:42:37.974Z,3.0962
2023-04-27T10:43:46.035Z,2.9376
2023-04-27T10:44:54.106Z,2.6292
2023-04-27T10:46:02.346Z,2.6593
2023-04-27T10:47:10.297Z,2.6311
2023-04-27T10:48:18.270Z,2.5460
2023-04-27T10:49:26.441Z,2.5620
2023-04-27T10:50:34.607Z,2.7666
2023-04-27T10:51:42.592Z,2.6330
2023-04-27T10:52:50.636Z,2.5038
2023-04-27T10:53:58.632Z,2.9734
2023-04-27T10:55:06.679Z,2.8717
2023-04-27T10:56:14.741Z,2.7610
2023-04-27T10:57:22.712Z,2.9300
2023-04-27T10:58:41.421Z,2.9493
2023-04-27T10:59:43.960Z,3.3572
2023-04-27T11:00:51.749Z,3.5630
2023-04-27T11:01:59.884Z,3.2358
2023-04-27T11:03:08.037Z,3.5829
2023-04-27T11:04:16.478Z,3.4384
2023-04-27T11:05:24.058Z,3.4626
2023-04-27T11:06:32.194Z,3.4167
2023-04-27T11:07:40.182Z,3.3984
2023-04-27T11:08:48.231Z,3.6502
2023-04-27T11:09:56.284Z,3.9194
2023-04-27T11:11:04.241Z,3.5227
2023-04-27T11:12:12.289Z,3.5926
2023-04-27T11:13:20.393Z,3.4864
2023-04-27T11:14:28.498Z,3.3256
2023-04-27T11:15:36.624Z,3.6047
2023-04-27T11:16:44.687Z,3.6659
2023-04-27T11:17:52.729Z,3.4572
2023-04-27T11:19:00.718Z,3.5205
2023-04-27T11:20:08.801Z,3.8112
2023-04-27T11:21:16.904Z,3.6767
2023-04-27T11:22:24.880Z,3.9887
2023-04-27T11:23:33.060Z,3.8545
2023-04-27T11:24:40.999Z,3.8990
2023-04-27T11:25:48.978Z,3.4162
2023-04-27T11:26:57.074Z,3.9277
2023-04-27T11:28:05.116Z,4.1430
2023-04-27T11:29:13.653Z,3.6271
2023-04-27T11:30:21.311Z,3.9795
2023-04-27T11:31:29.402Z,3.7049
2023-04-27T11:32:37.566Z,3.9289
2023-04-27T11:33:45.457Z,3.9982
2023-04-27T11:34:54.657Z,4.2578
2023-04-27T11:36:06.432Z,3.9995
2023-04-27T11:37:18.429Z,4.0192
2023-04-27T11:38:27.487Z,4.0095
2023-04-27T11:39:35.382Z,3.5878
2023-04-27T11:40:43.435Z,3.2010
2023-04-27T11:41:51.630Z,2.7487
2023-04-27T11:42:59.675Z,2.7110
2023-04-27T11:44:07.758Z,2.5690
2023-04-27T11:45:15.787Z,2.8640
2023-04-27T11:46:23.839Z,2.8551
2023-04-27T11:47:31.935Z,2.8490
2023-04-27T11:48:39.921Z,2.7462
2023-04-27T11:49:47.998Z,2.7380
2023-04-27T11:50:56.110Z,2.5640
2023-04-27T11:52:04.093Z,2.4843
2023-04-27T11:53:12.034Z,2.3856
2023-04-27T11:54:20.082Z,2.8484
2023-04-27T11:55:28.189Z,2.7773
2023-04-27T11:56:36.470Z,2.6765
2023-04-27T11:57:44.401Z,2.5566
2023-04-27T11:58:52.314Z,2.4356
2023-04-27T12:00:00.646Z,2.2645
2023-04-27T12:01:08.587Z,2.3068
2023-04-27T12:02:16.620Z,2.1516
2023-04-27T12:03:24.984Z,2.4979
2023-04-27T12:04:32.907Z,2.0060
2023-04-27T12:05:40.954Z,2.1582
2023-04-27T12:06:48.855Z,1.9899
2023-04-27T12:07:56.877Z,2.2861
2023-04-27T12:09:04.986Z,2.6578
2023-04-27T12:10:12.879Z,2.8652
2023-04-27T12:11:20.965Z,2.7809
2023-04-27T12:12:29.034Z,2.5919
2023-04-27T12:13:37.186Z,2.6899
2023-04-27T12:14:45.352Z,2.4069
2023-04-27T12:15:53.572Z,3.0846
2023-04-27T12:17:01.473Z,3.6657
2023-04-27T12:18:09.602Z,3.3613
2023-04-27T12:19:17.640Z,3.8847
2023-04-27T12:20:25.718Z,4.0387
2023-04-27T12:21:33.611Z,3.3510
2023-04-27T12:22:41.717Z,3.8915
2023-04-27T12:23:49.863Z,3.7816
2023-04-27T12:24:57.734Z,3.7315
2023-04-27T12:26:05.806Z,4.1159
2023-04-27T12:27:13.858Z,3.7171
2023-04-27T12:28:22.003Z,3.8722
2023-04-27T12:29:29.998Z,3.7066
2023-04-27T12:30:38.156Z,3.2323
2023-04-27T12:31:46.256Z,2.9363
2023-04-27T12:32:54.416Z,3.2805
2023-04-27T12:34:02.304Z,3.1417
2023-04-27T12:35:10.494Z,3.4223
2023-04-27T12:36:18.567Z,3.0364
2023-04-27T12:37:27.146Z,2.6088
2023-04-27T12:38:34.440Z,2.7996
2023-04-27T12:39:42.516Z,3.0385
2023-04-27T12:40:50.608Z,3.2207
2023-04-27T12:41:58.806Z,3.2229
2023-04-27T12:43:06.734Z,3.3973
2023-04-27T12:44:15.068Z,3.3613
2023-04-27T12:45:22.905Z,3.3416
2023-04-27T12:46:30.995Z,2.7832
2023-04-27T12:47:58.345Z,3.0825
2023-04-27T12:48:51.985Z,3.4970
2023-04-27T12:50:00.013Z,3.1686
2023-04-27T12:51:08.242Z,3.4504
2023-04-27T12:52:16.132Z,3.3460
2023-04-27T12:53:24.150Z,3.2055
2023-04-27T12:54:32.240Z,3.0849
2023-04-27T12:55:40.433Z,2.7455
2023-04-27T12:56:48.385Z,2.6740
2023-04-27T12:57:56.545Z,2.5119
2023-04-27T12:59:04.604Z,2.5851
2023-04-27T13:00:12.690Z,2.8749
2023-04-27T13:01:20.634Z,2.8144
2023-04-27T13:02:28.938Z,2.8490
2023-04-27T13:03:37.095Z,2.8713
2023-04-27T13:04:45.055Z,2.7579
2023-04-27T13:05:53.028Z,2.8294
2023-04-27T13:07:00.938Z,2.9502
2023-04-27T13:08:08.997Z,2.5913
2023-04-27T13:09:17.099Z,2.5806
2023-04-27T13:10:25.226Z,2.5262
2023-04-27T13:11:33.282Z,2.5672
2023-04-27T13:12:41.608Z,2.6303
2023-04-27T13:13:49.411Z,3.2186
2023-04-27T13:14:57.547Z,3.0218
2023-04-27T13:16:05.598Z,3.1605
2023-04-27T13:17:13.627Z,2.7034
2023-04-27T13:18:21.663Z,2.7776
2023-04-27T13:19:29.725Z,2.9830
2023-04-27T13:20:38.002Z,2.6264
2023-04-27T13:21:45.709Z,2.5357
2023-04-27T13:22:53.773Z,2.6842
2023-04-27T13:24:01.841Z,2.8963
2023-04-27T13:25:10.020Z,2.6197
2023-04-27T13:26:17.968Z,2.7897
2023-04-27T13:27:26.421Z,2.7650
2023-04-27T13:28:34.161Z,2.5958
2023-04-27T13:29:42.249Z,2.5548
2023-04-27T13:30:50.251Z,2.7535
2023-04-27T13:31:58.384Z,2.7395
2023-04-27T13:33:21.096Z,2.6188
2023-04-27T13:34:19.322Z,2.4478
2023-04-27T13:35:27.413Z,2.7000
2023-04-27T13:36:35.306Z,2.6813
2023-04-27T13:37:43.402Z,2.7528
2023-04-27T13:38:51.444Z,2.8234
2023-04-27T13:39:59.634Z,2.4438
2023-04-27T13:41:07.664Z,2.3226
2023-04-27T13:42:15.701Z,2.1428
2023-04-27T13:43:23.806Z,2.1923
2023-04-27T13:44:31.972Z,2.0367
2023-04-27T13:45:39.947Z,2.0317
2023-04-27T13:46:48.059Z,2.1624
2023-04-27T13:47:56.040Z,2.3152
2023-04-27T13:49:04.108Z,2.3457
2023-04-27T13:50:12.176Z,2.4348
2023-04-27T13:51:20.144Z,2.6690
2023-04-27T13:52:28.174Z,2.5755
2023-04-27T13:53:36.278Z,2.4495
2023-04-27T13:54:44.654Z,2.1683
2023-04-27T13:55:52.488Z,2.0019
2023-04-27T13:57:00.612Z,2.0038
2023-04-27T13:58:08.680Z,1.9986
2023-04-27T13:59:16.825Z,2.4160
2023-04-27T14:00:24.841Z,3.9821